sensor_id;sensor_type;location;lat;lon;timestamp;temperature;humidity
108;DHT22;49;48.530;9.200;2022-10-16T00:01:28;20.80;4.70
108;DHT22;49;48.530;9.200;2022-10-16T00:03:56;20.70;4.40
108;DHT22;49;48.530;9.200;2022-10-16T00:06:25;20.70;4.70
108;DHT22;49;48.530;9.200;2022-10-16T00:08:52;20.60;4.80
108;DHT22;49;48.530;9.200;2022-10-16T00:11:21;20.50;4.90
108;DHT22;49;48.530;9.200;2022-10-16T00:13:50;20.60;4.40
108;DHT22;49;48.530;9.200;2022-10-16T00:16:18;20.70;4.30
108;DHT22;49;48.530;9.200;2022-10-16T00:18:47;20.60;4.50
108;DHT22;49;48.530;9.200;2022-10-16T00:21:16;20.60;4.20
108;DHT22;49;48.530;9.200;2022-10-16T00:23:43;20.70;4.40
108;DHT22;49;48.530;9.200;2022-10-16T00:26:12;20.60;4.30
108;DHT22;49;48.530;9.200;2022-10-16T00:28:40;20.50;4.40
108;DHT22;49;48.530;9.200;2022-10-16T00:31:08;20.50;4.80
108;DHT22;49;48.530;9.200;2022-10-16T00:33:37;20.50;5.30
108;DHT22;49;48.530;9.200;2022-10-16T00:36:07;20.50;5.50
108;DHT22;49;48.530;9.200;2022-10-16T00:38:34;20.30;5.20
108;DHT22;49;48.530;9.200;2022-10-16T00:41:03;20.20;5.70
108;DHT22;49;48.530;9.200;2022-10-16T00:43:36;20.20;5.70
108;DHT22;49;48.530;9.200;2022-10-16T00:46:09;20.00;6.10
108;DHT22;49;48.530;9.200;2022-10-16T00:48:37;20.20;6.30
108;DHT22;49;48.530;9.200;2022-10-16T00:51:07;20.20;6.30
108;DHT22;49;48.530;9.200;2022-10-16T00:53:35;20.30;6.10
108;DHT22;49;48.530;9.200;2022-10-16T00:56:03;20.20;6.30
108;DHT22;49;48.530;9.200;2022-10-16T00:58:31;20.20;5.60
108;DHT22;49;48.530;9.200;2022-10-16T01:00:58;20.20;5.80
108;DHT22;49;48.530;9.200;2022-10-16T01:03:27;20.20;6.20
108;DHT22;49;48.530;9.200;2022-10-16T01:06:11;20.30;5.80
108;DHT22;49;48.530;9.200;2022-10-16T01:08:54;20.40;5.50
108;DHT22;49;48.530;9.200;2022-10-16T01:11:33;20.50;5.00
108;DHT22;49;48.530;9.200;2022-10-16T01:14:08;20.40;4.60
108;DHT22;49;48.530;9.200;2022-10-16T01:16:44;20.40;5.30
108;DHT22;49;48.530;9.200;2022-10-16T01:19:19;20.20;5.50
108;DHT22;49;48.530;9.200;2022-10-16T01:21:51;19.90;5.90
108;DHT22;49;48.530;9.200;2022-10-16T01:24:31;19.60;6.50
108;DHT22;49;48.530;9.200;2022-10-16T01:27:13;19.60;6.50
108;DHT22;49;48.530;9.200;2022-10-16T01:29:49;19.90;6.10
108;DHT22;49;48.530;9.200;2022-10-16T01:32:23;20.00;6.20
108;DHT22;49;48.530;9.200;2022-10-16T01:34:54;20.20;6.30
108;DHT22;49;48.530;9.200;2022-10-16T01:37:32;20.10;6.20
108;DHT22;49;48.530;9.200;2022-10-16T01:40:02;20.00;6.20
108;DHT22;49;48.530;9.200;2022-10-16T01:42:35;20.00;6.20
108;DHT22;49;48.530;9.200;2022-10-16T01:45:06;20.00;6.20
108;DHT22;49;48.530;9.200;2022-10-16T01:47:35;20.00;6.20
108;DHT22;49;48.530;9.200;2022-10-16T01:50:04;19.90;6.10
108;DHT22;49;48.530;9.200;2022-10-16T01:52:35;19.70;6.90
108;DHT22;49;48.530;9.200;2022-10-16T01:55:07;19.60;7.00
108;DHT22;49;48.530;9.200;2022-10-16T01:57:41;19.80;6.50
108;DHT22;49;48.530;9.200;2022-10-16T02:00:12;20.00;6.30
108;DHT22;49;48.530;9.200;2022-10-16T02:02:42;20.10;6.20
108;DHT22;49;48.530;9.200;2022-10-16T02:05:18;20.20;6.30
108;DHT22;49;48.530;9.200;2022-10-16T02:07:47;20.20;6.00
108;DHT22;49;48.530;9.200;2022-10-16T02:10:14;20.20;6.30
108;DHT22;49;48.530;9.200;2022-10-16T02:12:46;20.30;6.00
108;DHT22;49;48.530;9.200;2022-10-16T02:15:14;20.40;6.10
108;DHT22;49;48.530;9.200;2022-10-16T02:17:41;20.20;6.10
108;DHT22;49;48.530;9.200;2022-10-16T02:20:09;20.20;6.30
108;DHT22;49;48.530;9.200;2022-10-16T02:22:40;20.20;6.90
108;DHT22;49;48.530;9.200;2022-10-16T02:25:10;19.90;6.20
108;DHT22;49;48.530;9.200;2022-10-16T02:27:45;20.10;6.20
108;DHT22;49;48.530;9.200;2022-10-16T02:30:21;20.20;6.30
108;DHT22;49;48.530;9.200;2022-10-16T02:32:50;20.10;6.30
108;DHT22;49;48.530;9.200;2022-10-16T02:35:21;19.90;6.50
108;DHT22;49;48.530;9.200;2022-10-16T02:37:50;19.90;6.50
108;DHT22;49;48.530;9.200;2022-10-16T02:40:19;20.00;6.50
108;DHT22;49;48.530;9.200;2022-10-16T02:42:50;19.80;6.80
108;DHT22;49;48.530;9.200;2022-10-16T02:45:18;19.90;7.70
108;DHT22;49;48.530;9.200;2022-10-16T02:47:44;20.00;7.10
108;DHT22;49;48.530;9.200;2022-10-16T02:50:12;20.00;7.30
108;DHT22;49;48.530;9.200;2022-10-16T02:52:42;20.00;7.20
108;DHT22;49;48.530;9.200;2022-10-16T02:55:09;19.90;7.70
108;DHT22;49;48.530;9.200;2022-10-16T02:57:36;19.80;7.20
108;DHT22;49;48.530;9.200;2022-10-16T03:00:07;20.10;6.30
108;DHT22;49;48.530;9.200;2022-10-16T03:02:34;20.00;6.60
108;DHT22;49;48.530;9.200;2022-10-16T03:05:01;19.90;7.30
108;DHT22;49;48.530;9.200;2022-10-16T03:07:28;20.00;7.20
108;DHT22;49;48.530;9.200;2022-10-16T03:09:55;20.10;7.00
108;DHT22;49;48.530;9.200;2022-10-16T03:12:22;20.10;6.40
108;DHT22;49;48.530;9.200;2022-10-16T03:14:49;20.20;6.40
108;DHT22;49;48.530;9.200;2022-10-16T03:17:17;20.00;6.40
108;DHT22;49;48.530;9.200;2022-10-16T03:19:44;19.90;7.00
108;DHT22;49;48.530;9.200;2022-10-16T03:22:11;19.70;7.40
108;DHT22;49;48.530;9.200;2022-10-16T03:24:37;19.70;7.50
108;DHT22;49;48.530;9.200;2022-10-16T03:27:04;19.90;7.20
108;DHT22;49;48.530;9.200;2022-10-16T03:29:31;20.00;6.70
108;DHT22;49;48.530;9.200;2022-10-16T03:31:58;20.00;7.00
108;DHT22;49;48.530;9.200;2022-10-16T03:34:27;19.60;8.10
108;DHT22;49;48.530;9.200;2022-10-16T03:36:54;19.60;8.00
108;DHT22;49;48.530;9.200;2022-10-16T03:39:21;19.70;8.40
108;DHT22;49;48.530;9.200;2022-10-16T03:41:47;19.60;8.30
108;DHT22;49;48.530;9.200;2022-10-16T03:44:14;19.60;8.30
108;DHT22;49;48.530;9.200;2022-10-16T03:46:41;19.80;7.60
108;DHT22;49;48.530;9.200;2022-10-16T03:49:08;19.70;7.60
108;DHT22;49;48.530;9.200;2022-10-16T03:51:36;19.90;8.20
108;DHT22;49;48.530;9.200;2022-10-16T03:54:03;20.00;7.70
108;DHT22;49;48.530;9.200;2022-10-16T03:56:30;20.20;7.50
108;DHT22;49;48.530;9.200;2022-10-16T03:58:57;20.10;7.20
108;DHT22;49;48.530;9.200;2022-10-16T04:01:23;20.00;7.00
108;DHT22;49;48.530;9.200;2022-10-16T04:03:50;19.90;7.90
108;DHT22;49;48.530;9.200;2022-10-16T04:06:17;20.10;7.20
108;DHT22;49;48.530;9.200;2022-10-16T04:08:45;20.20;7.00
108;DHT22;49;48.530;9.200;2022-10-16T04:11:12;20.00;7.70
108;DHT22;49;48.530;9.200;2022-10-16T04:13:39;19.70;8.10
108;DHT22;49;48.530;9.200;2022-10-16T04:16:07;19.60;9.00
108;DHT22;49;48.530;9.200;2022-10-16T04:18:34;19.80;8.40
108;DHT22;49;48.530;9.200;2022-10-16T04:21:03;19.90;7.90
108;DHT22;49;48.530;9.200;2022-10-16T04:23:30;20.00;7.50
108;DHT22;49;48.530;9.200;2022-10-16T04:26:00;20.10;7.80
108;DHT22;49;48.530;9.200;2022-10-16T04:28:27;20.10;7.40
108;DHT22;49;48.530;9.200;2022-10-16T04:30:54;20.00;7.50
108;DHT22;49;48.530;9.200;2022-10-16T04:33:21;19.90;7.90
108;DHT22;49;48.530;9.200;2022-10-16T04:35:48;19.90;8.40
108;DHT22;49;48.530;9.200;2022-10-16T04:38:15;19.90;8.30
108;DHT22;49;48.530;9.200;2022-10-16T04:40:42;19.80;8.10
108;DHT22;49;48.530;9.200;2022-10-16T04:43:11;19.80;8.60
108;DHT22;49;48.530;9.200;2022-10-16T04:45:38;19.70;8.50
108;DHT22;49;48.530;9.200;2022-10-16T04:48:04;19.80;8.20
108;DHT22;49;48.530;9.200;2022-10-16T04:50:31;19.80;8.30
108;DHT22;49;48.530;9.200;2022-10-16T04:52:58;19.60;8.50
108;DHT22;49;48.530;9.200;2022-10-16T04:55:25;19.70;9.00
108;DHT22;49;48.530;9.200;2022-10-16T04:57:52;19.70;9.00
108;DHT22;49;48.530;9.200;2022-10-16T05:00:21;19.70;9.00
108;DHT22;49;48.530;9.200;2022-10-16T05:02:49;19.80;8.30
108;DHT22;49;48.530;9.200;2022-10-16T05:05:17;19.60;9.30
108;DHT22;49;48.530;9.200;2022-10-16T05:07:44;19.80;8.80
108;DHT22;49;48.530;9.200;2022-10-16T05:10:11;19.90;8.90
108;DHT22;49;48.530;9.200;2022-10-16T05:12:38;19.90;8.50
108;DHT22;49;48.530;9.200;2022-10-16T05:15:06;19.80;8.10
108;DHT22;49;48.530;9.200;2022-10-16T05:17:34;19.70;8.40
108;DHT22;49;48.530;9.200;2022-10-16T05:20:01;19.70;8.90
108;DHT22;49;48.530;9.200;2022-10-16T05:22:28;19.60;8.00
108;DHT22;49;48.530;9.200;2022-10-16T05:24:55;19.70;8.10
108;DHT22;49;48.530;9.200;2022-10-16T05:27:22;19.70;9.30
108;DHT22;49;48.530;9.200;2022-10-16T05:29:49;19.60;8.00
108;DHT22;49;48.530;9.200;2022-10-16T05:32:16;19.70;8.80
108;DHT22;49;48.530;9.200;2022-10-16T05:34:45;19.90;8.50
108;DHT22;49;48.530;9.200;2022-10-16T05:37:12;20.00;7.90
108;DHT22;49;48.530;9.200;2022-10-16T05:39:39;20.00;7.20
108;DHT22;49;48.530;9.200;2022-10-16T05:42:06;19.90;7.30
108;DHT22;49;48.530;9.200;2022-10-16T05:44:33;19.60;8.30
108;DHT22;49;48.530;9.200;2022-10-16T05:47:00;19.70;8.30
108;DHT22;49;48.530;9.200;2022-10-16T05:49:27;19.70;8.80
108;DHT22;49;48.530;9.200;2022-10-16T05:51:55;19.70;8.30
108;DHT22;49;48.530;9.200;2022-10-16T05:54:22;19.70;8.70
108;DHT22;49;48.530;9.200;2022-10-16T05:56:49;19.80;8.40
108;DHT22;49;48.530;9.200;2022-10-16T05:59:16;19.80;8.70
108;DHT22;49;48.530;9.200;2022-10-16T06:01:43;19.80;8.90
108;DHT22;49;48.530;9.200;2022-10-16T06:04:09;19.70;8.50
108;DHT22;49;48.530;9.200;2022-10-16T06:06:36;19.80;9.20
108;DHT22;49;48.530;9.200;2022-10-16T06:09:05;20.00;8.70
108;DHT22;49;48.530;9.200;2022-10-16T06:11:33;19.90;8.40
108;DHT22;49;48.530;9.200;2022-10-16T06:14:01;19.90;8.00
108;DHT22;49;48.530;9.200;2022-10-16T06:16:32;20.00;8.80
108;DHT22;49;48.530;9.200;2022-10-16T06:19:00;20.20;8.40
108;DHT22;49;48.530;9.200;2022-10-16T06:21:28;20.30;7.70
108;DHT22;49;48.530;9.200;2022-10-16T06:23:56;20.20;8.00
108;DHT22;49;48.530;9.200;2022-10-16T06:26:26;20.20;8.20
108;DHT22;49;48.530;9.200;2022-10-16T06:28:54;20.40;7.50
108;DHT22;49;48.530;9.200;2022-10-16T06:31:22;20.20;7.60
108;DHT22;49;48.530;9.200;2022-10-16T06:33:53;20.20;7.20
108;DHT22;49;48.530;9.200;2022-10-16T06:36:20;20.20;7.90
108;DHT22;49;48.530;9.200;2022-10-16T06:38:48;20.20;7.50
108;DHT22;49;48.530;9.200;2022-10-16T06:41:16;20.10;8.40
108;DHT22;49;48.530;9.200;2022-10-16T06:43:45;20.30;8.20
108;DHT22;49;48.530;9.200;2022-10-16T06:46:13;20.30;8.30
108;DHT22;49;48.530;9.200;2022-10-16T06:48:41;20.40;8.20
108;DHT22;49;48.530;9.200;2022-10-16T06:51:10;20.50;7.80
108;DHT22;49;48.530;9.200;2022-10-16T06:53:38;20.40;8.60
108;DHT22;49;48.530;9.200;2022-10-16T06:56:09;20.50;8.70
108;DHT22;49;48.530;9.200;2022-10-16T06:58:36;20.50;8.20
108;DHT22;49;48.530;9.200;2022-10-16T07:01:05;20.40;8.20
108;DHT22;49;48.530;9.200;2022-10-16T07:03:32;20.40;8.50
108;DHT22;49;48.530;9.200;2022-10-16T07:06:02;20.40;8.90
108;DHT22;49;48.530;9.200;2022-10-16T07:08:31;20.70;8.00
108;DHT22;49;48.530;9.200;2022-10-16T07:10:59;20.90;7.50
108;DHT22;49;48.530;9.200;2022-10-16T07:13:26;20.90;6.80
108;DHT22;49;48.530;9.200;2022-10-16T07:15:53;20.80;7.40
108;DHT22;49;48.530;9.200;2022-10-16T07:18:21;20.90;7.10
108;DHT22;49;48.530;9.200;2022-10-16T07:20:51;20.40;8.90
108;DHT22;49;48.530;9.200;2022-10-16T07:23:18;20.60;8.90
108;DHT22;49;48.530;9.200;2022-10-16T07:25:45;20.40;9.20
108;DHT22;49;48.530;9.200;2022-10-16T07:28:12;20.30;10.20
108;DHT22;49;48.530;9.200;2022-10-16T07:30:39;20.40;9.90
108;DHT22;49;48.530;9.200;2022-10-16T07:33:06;20.60;9.90
108;DHT22;49;48.530;9.200;2022-10-16T07:35:34;20.50;9.20
108;DHT22;49;48.530;9.200;2022-10-16T07:38:01;20.30;9.20
108;DHT22;49;48.530;9.200;2022-10-16T07:40:28;20.30;10.00
108;DHT22;49;48.530;9.200;2022-10-16T07:42:55;20.40;9.50
108;DHT22;49;48.530;9.200;2022-10-16T07:45:21;20.70;9.40
108;DHT22;49;48.530;9.200;2022-10-16T07:47:48;20.90;9.20
108;DHT22;49;48.530;9.200;2022-10-16T07:50:15;20.90;9.50
108;DHT22;49;48.530;9.200;2022-10-16T07:52:43;20.90;9.30
108;DHT22;49;48.530;9.200;2022-10-16T07:55:10;20.90;10.00
108;DHT22;49;48.530;9.200;2022-10-16T07:57:37;21.10;9.40
108;DHT22;49;48.530;9.200;2022-10-16T08:00:05;21.20;9.20
108;DHT22;49;48.530;9.200;2022-10-16T08:02:32;21.30;8.70
108;DHT22;49;48.530;9.200;2022-10-16T08:04:59;21.50;8.80
108;DHT22;49;48.530;9.200;2022-10-16T08:07:25;21.90;8.20
108;DHT22;49;48.530;9.200;2022-10-16T08:09:54;22.20;7.80
108;DHT22;49;48.530;9.200;2022-10-16T08:12:22;22.10;7.60
108;DHT22;49;48.530;9.200;2022-10-16T08:14:48;22.10;7.40
108;DHT22;49;48.530;9.200;2022-10-16T08:17:15;22.10;7.70
108;DHT22;49;48.530;9.200;2022-10-16T08:19:44;22.20;7.70
108;DHT22;49;48.530;9.200;2022-10-16T08:22:11;22.30;6.40
108;DHT22;49;48.530;9.200;2022-10-16T08:24:38;22.20;6.80
108;DHT22;49;48.530;9.200;2022-10-16T08:27:07;22.40;6.50
108;DHT22;49;48.530;9.200;2022-10-16T08:29:35;22.60;6.40
108;DHT22;49;48.530;9.200;2022-10-16T08:32:03;22.70;6.40
108;DHT22;49;48.530;9.200;2022-10-16T08:34:30;22.90;6.80
108;DHT22;49;48.530;9.200;2022-10-16T08:36:57;23.20;5.70
108;DHT22;49;48.530;9.200;2022-10-16T08:39:24;23.30;5.90
108;DHT22;49;48.530;9.200;2022-10-16T08:42:07;23.60;5.40
108;DHT22;49;48.530;9.200;2022-10-16T08:47:43;24.20;3.50
108;DHT22;49;48.530;9.200;2022-10-16T08:50:14;24.10;4.40
108;DHT22;49;48.530;9.200;2022-10-16T08:52:44;23.90;4.00
108;DHT22;49;48.530;9.200;2022-10-16T08:55:31;23.90;3.70
108;DHT22;49;48.530;9.200;2022-10-16T08:58:01;23.70;3.90
108;DHT22;49;48.530;9.200;2022-10-16T09:00:28;23.90;3.80
108;DHT22;49;48.530;9.200;2022-10-16T09:03:06;23.90;4.30
108;DHT22;49;48.530;9.200;2022-10-16T09:05:49;23.80;4.80
108;DHT22;49;48.530;9.200;2022-10-16T09:08:28;24.00;3.30
108;DHT22;49;48.530;9.200;2022-10-16T09:11:01;23.90;3.20
108;DHT22;49;48.530;9.200;2022-10-16T09:13:43;24.00;2.90
108;DHT22;49;48.530;9.200;2022-10-16T09:16:19;24.10;2.90
108;DHT22;49;48.530;9.200;2022-10-16T09:18:54;24.30;3.30
108;DHT22;49;48.530;9.200;2022-10-16T09:21:25;24.30;3.00
108;DHT22;49;48.530;9.200;2022-10-16T09:23:54;24.60;2.90
108;DHT22;49;48.530;9.200;2022-10-16T09:26:23;24.70;2.90
108;DHT22;49;48.530;9.200;2022-10-16T09:28:52;24.80;2.90
108;DHT22;49;48.530;9.200;2022-10-16T09:31:20;24.40;1.10
108;DHT22;49;48.530;9.200;2022-10-16T09:33:52;23.90;3.00
108;DHT22;49;48.530;9.200;2022-10-16T09:36:20;23.90;2.40
108;DHT22;49;48.530;9.200;2022-10-16T09:38:48;24.10;2.60
108;DHT22;49;48.530;9.200;2022-10-16T09:41:18;24.10;1.70
108;DHT22;49;48.530;9.200;2022-10-16T09:43:53;24.00;2.50
108;DHT22;49;48.530;9.200;2022-10-16T09:46:25;24.50;2.70
108;DHT22;49;48.530;9.200;2022-10-16T09:48:55;24.70;2.40
108;DHT22;49;48.530;9.200;2022-10-16T09:51:25;24.80;1.40
108;DHT22;49;48.530;9.200;2022-10-16T09:53:58;24.90;1.20
108;DHT22;49;48.530;9.200;2022-10-16T09:56:27;25.10;1.10
108;DHT22;49;48.530;9.200;2022-10-16T09:58:58;25.20;1.00
108;DHT22;49;48.530;9.200;2022-10-16T10:01:31;25.20;1.00
108;DHT22;49;48.530;9.200;2022-10-16T10:04:02;25.10;1.00
108;DHT22;49;48.530;9.200;2022-10-16T10:06:31;24.90;1.50
108;DHT22;49;48.530;9.200;2022-10-16T10:09:03;25.00;1.00
108;DHT22;49;48.530;9.200;2022-10-16T10:11:51;25.10;1.00
108;DHT22;49;48.530;9.200;2022-10-16T10:14:26;24.80;1.20
108;DHT22;49;48.530;9.200;2022-10-16T10:17:13;24.80;1.70
108;DHT22;49;48.530;9.200;2022-10-16T10:19:44;24.80;2.10
108;DHT22;49;48.530;9.200;2022-10-16T10:22:30;24.90;1.30
108;DHT22;49;48.530;9.200;2022-10-16T10:28:22;24.70;1.70
108;DHT22;49;48.530;9.200;2022-10-16T10:30:59;24.90;1.90
108;DHT22;49;48.530;9.200;2022-10-16T10:33:34;25.10;1.60
108;DHT22;49;48.530;9.200;2022-10-16T10:36:22;25.20;1.80
108;DHT22;49;48.530;9.200;2022-10-16T10:38:54;25.60;1.00
108;DHT22;49;48.530;9.200;2022-10-16T10:41:39;25.80;1.00
108;DHT22;49;48.530;9.200;2022-10-16T10:44:25;26.00;1.00
108;DHT22;49;48.530;9.200;2022-10-16T10:46:57;26.30;1.00
108;DHT22;49;48.530;9.200;2022-10-16T10:49:43;26.60;1.00
108;DHT22;49;48.530;9.200;2022-10-16T10:52:27;26.50;1.00
108;DHT22;49;48.530;9.200;2022-10-16T10:55:08;26.30;1.00
108;DHT22;49;48.530;9.200;2022-10-16T10:57:45;26.20;1.00
108;DHT22;49;48.530;9.200;2022-10-16T11:00:21;26.20;1.00
108;DHT22;49;48.530;9.200;2022-10-16T11:03:05;26.20;1.00
108;DHT22;49;48.530;9.200;2022-10-16T11:05:42;26.40;1.00
108;DHT22;49;48.530;9.200;2022-10-16T11:08:15;26.60;1.00
108;DHT22;49;48.530;9.200;2022-10-16T11:10:49;26.60;1.00
108;DHT22;49;48.530;9.200;2022-10-16T11:13:28;26.10;1.00
108;DHT22;49;48.530;9.200;2022-10-16T11:15:59;25.60;1.00
108;DHT22;49;48.530;9.200;2022-10-16T11:18:35;25.50;1.00
108;DHT22;49;48.530;9.200;2022-10-16T11:21:08;25.80;1.00
108;DHT22;49;48.530;9.200;2022-10-16T11:23:42;26.30;1.00
108;DHT22;49;48.530;9.200;2022-10-16T11:26:15;26.10;1.00
108;DHT22;49;48.530;9.200;2022-10-16T11:28:47;25.60;1.00
108;DHT22;49;48.530;9.200;2022-10-16T11:31:22;25.60;1.00
108;DHT22;49;48.530;9.200;2022-10-16T11:33:57;25.30;1.00
108;DHT22;49;48.530;9.200;2022-10-16T11:36:33;25.30;1.00
108;DHT22;49;48.530;9.200;2022-10-16T11:39:11;25.20;1.00
108;DHT22;49;48.530;9.200;2022-10-16T11:41:47;25.50;1.00
108;DHT22;49;48.530;9.200;2022-10-16T11:44:25;25.70;1.00
108;DHT22;49;48.530;9.200;2022-10-16T11:47:05;25.40;1.00
108;DHT22;49;48.530;9.200;2022-10-16T11:49:37;25.50;1.00
108;DHT22;49;48.530;9.200;2022-10-16T11:52:12;25.90;1.00
108;DHT22;49;48.530;9.200;2022-10-16T11:54:47;26.20;1.00
108;DHT22;49;48.530;9.200;2022-10-16T11:57:19;26.40;1.00
108;DHT22;49;48.530;9.200;2022-10-16T11:59:52;26.20;1.00
108;DHT22;49;48.530;9.200;2022-10-16T12:02:40;26.30;1.00
108;DHT22;49;48.530;9.200;2022-10-16T12:05:21;26.60;1.00
108;DHT22;49;48.530;9.200;2022-10-16T12:07:59;26.80;1.00
108;DHT22;49;48.530;9.200;2022-10-16T12:10:29;26.90;1.00
108;DHT22;49;48.530;9.200;2022-10-16T12:13:02;27.10;1.00
108;DHT22;49;48.530;9.200;2022-10-16T12:15:31;27.20;1.00
108;DHT22;49;48.530;9.200;2022-10-16T12:17:58;27.10;1.00
108;DHT22;49;48.530;9.200;2022-10-16T12:20:29;26.90;1.00
108;DHT22;49;48.530;9.200;2022-10-16T12:23:00;27.00;1.00
108;DHT22;49;48.530;9.200;2022-10-16T12:25:30;26.40;1.00
108;DHT22;49;48.530;9.200;2022-10-16T12:28:03;26.40;1.00
108;DHT22;49;48.530;9.200;2022-10-16T12:30:33;26.80;1.00
108;DHT22;49;48.530;9.200;2022-10-16T12:33:03;26.90;1.00
108;DHT22;49;48.530;9.200;2022-10-16T12:35:35;27.10;1.00
108;DHT22;49;48.530;9.200;2022-10-16T12:38:16;27.20;1.00
108;DHT22;49;48.530;9.200;2022-10-16T12:40:45;27.10;1.00
108;DHT22;49;48.530;9.200;2022-10-16T12:43:25;27.20;1.00
108;DHT22;49;48.530;9.200;2022-10-16T12:46:01;27.40;1.00
108;DHT22;49;48.530;9.200;2022-10-16T12:48:28;27.30;1.00
108;DHT22;49;48.530;9.200;2022-10-16T12:50:57;27.20;1.00
108;DHT22;49;48.530;9.200;2022-10-16T12:53:35;27.20;1.00
108;DHT22;49;48.530;9.200;2022-10-16T12:56:11;27.00;1.00
108;DHT22;49;48.530;9.200;2022-10-16T12:59:01;27.00;1.00
108;DHT22;49;48.530;9.200;2022-10-16T13:01:41;27.20;1.00
108;DHT22;49;48.530;9.200;2022-10-16T13:04:31;27.40;1.00
108;DHT22;49;48.530;9.200;2022-10-16T13:07:19;27.20;1.00
108;DHT22;49;48.530;9.200;2022-10-16T13:09:59;27.30;1.00
108;DHT22;49;48.530;9.200;2022-10-16T13:12:54;27.50;1.00
108;DHT22;49;48.530;9.200;2022-10-16T13:15:40;27.60;1.00
108;DHT22;49;48.530;9.200;2022-10-16T13:18:15;27.60;1.00
108;DHT22;49;48.530;9.200;2022-10-16T13:20:59;27.80;1.00
108;DHT22;49;48.530;9.200;2022-10-16T13:23:37;28.10;1.00
108;DHT22;49;48.530;9.200;2022-10-16T13:26:16;28.20;1.00
108;DHT22;49;48.530;9.200;2022-10-16T13:28:45;28.20;1.00
108;DHT22;49;48.530;9.200;2022-10-16T13:31:17;28.20;1.00
108;DHT22;49;48.530;9.200;2022-10-16T13:33:48;28.20;1.00
108;DHT22;49;48.530;9.200;2022-10-16T13:36:20;28.40;1.00
108;DHT22;49;48.530;9.200;2022-10-16T13:38:57;28.10;1.00
108;DHT22;49;48.530;9.200;2022-10-16T13:41:26;27.90;1.00
108;DHT22;49;48.530;9.200;2022-10-16T13:43:54;27.80;1.00
108;DHT22;49;48.530;9.200;2022-10-16T13:46:24;27.90;1.00
108;DHT22;49;48.530;9.200;2022-10-16T13:48:58;27.80;1.00
108;DHT22;49;48.530;9.200;2022-10-16T13:51:26;27.70;1.00
108;DHT22;49;48.530;9.200;2022-10-16T13:53:55;27.70;1.00
108;DHT22;49;48.530;9.200;2022-10-16T13:56:25;27.70;1.00
108;DHT22;49;48.530;9.200;2022-10-16T13:59:01;27.70;1.00
108;DHT22;49;48.530;9.200;2022-10-16T14:01:30;27.70;1.00
108;DHT22;49;48.530;9.200;2022-10-16T14:04:04;27.70;1.00
108;DHT22;49;48.530;9.200;2022-10-16T14:06:33;27.80;1.00
108;DHT22;49;48.530;9.200;2022-10-16T14:09:07;27.70;1.00
108;DHT22;49;48.530;9.200;2022-10-16T14:11:44;27.80;1.00
108;DHT22;49;48.530;9.200;2022-10-16T14:14:13;27.80;1.00
108;DHT22;49;48.530;9.200;2022-10-16T14:16:42;27.70;1.00
108;DHT22;49;48.530;9.200;2022-10-16T14:19:19;27.80;1.00
108;DHT22;49;48.530;9.200;2022-10-16T14:21:47;27.70;1.00
108;DHT22;49;48.530;9.200;2022-10-16T14:24:25;27.90;1.00
108;DHT22;49;48.530;9.200;2022-10-16T14:26:53;27.90;1.00
108;DHT22;49;48.530;9.200;2022-10-16T14:29:23;27.80;1.00
108;DHT22;49;48.530;9.200;2022-10-16T14:31:57;27.70;1.00
108;DHT22;49;48.530;9.200;2022-10-16T14:34:30;27.60;1.00
108;DHT22;49;48.530;9.200;2022-10-16T14:37:00;27.60;1.00
108;DHT22;49;48.530;9.200;2022-10-16T14:39:31;27.60;1.00
108;DHT22;49;48.530;9.200;2022-10-16T14:41:58;27.70;1.00
108;DHT22;49;48.530;9.200;2022-10-16T14:44:31;27.80;1.00
108;DHT22;49;48.530;9.200;2022-10-16T14:47:06;27.80;1.00
108;DHT22;49;48.530;9.200;2022-10-16T14:49:34;27.80;1.00
108;DHT22;49;48.530;9.200;2022-10-16T14:52:04;27.80;1.00
108;DHT22;49;48.530;9.200;2022-10-16T14:54:33;27.60;1.00
108;DHT22;49;48.530;9.200;2022-10-16T14:57:00;27.40;1.00
108;DHT22;49;48.530;9.200;2022-10-16T14:59:30;27.30;1.00
108;DHT22;49;48.530;9.200;2022-10-16T15:01:58;27.40;1.00
108;DHT22;49;48.530;9.200;2022-10-16T15:04:25;27.50;1.00
108;DHT22;49;48.530;9.200;2022-10-16T15:06:52;27.50;1.00
108;DHT22;49;48.530;9.200;2022-10-16T15:09:19;27.60;1.00
108;DHT22;49;48.530;9.200;2022-10-16T15:11:47;27.70;1.00
108;DHT22;49;48.530;9.200;2022-10-16T15:14:14;27.70;1.00
108;DHT22;49;48.530;9.200;2022-10-16T15:16:41;27.30;1.00
108;DHT22;49;48.530;9.200;2022-10-16T15:19:08;26.90;1.00
108;DHT22;49;48.530;9.200;2022-10-16T15:21:35;26.70;1.00
108;DHT22;49;48.530;9.200;2022-10-16T15:24:02;26.70;1.00
108;DHT22;49;48.530;9.200;2022-10-16T15:26:30;26.90;1.00
108;DHT22;49;48.530;9.200;2022-10-16T15:28:58;26.90;1.00
108;DHT22;49;48.530;9.200;2022-10-16T15:31:25;27.00;1.00
108;DHT22;49;48.530;9.200;2022-10-16T15:33:52;27.00;1.00
108;DHT22;49;48.530;9.200;2022-10-16T15:36:27;27.00;1.00
108;DHT22;49;48.530;9.200;2022-10-16T15:38:54;27.10;1.00
108;DHT22;49;48.530;9.200;2022-10-16T15:41:21;27.00;1.00
108;DHT22;49;48.530;9.200;2022-10-16T15:43:49;27.00;1.00
108;DHT22;49;48.530;9.200;2022-10-16T15:46:19;27.10;1.00
108;DHT22;49;48.530;9.200;2022-10-16T15:48:47;27.10;1.00
108;DHT22;49;48.530;9.200;2022-10-16T15:51:14;27.00;1.00
108;DHT22;49;48.530;9.200;2022-10-16T15:53:41;27.00;1.00
108;DHT22;49;48.530;9.200;2022-10-16T15:56:10;26.90;1.00
108;DHT22;49;48.530;9.200;2022-10-16T15:58:37;26.70;1.00
108;DHT22;49;48.530;9.200;2022-10-16T16:01:04;26.70;1.00
108;DHT22;49;48.530;9.200;2022-10-16T16:03:33;26.60;1.00
108;DHT22;49;48.530;9.200;2022-10-16T16:06:04;26.50;1.00
108;DHT22;49;48.530;9.200;2022-10-16T16:08:33;26.40;1.00
108;DHT22;49;48.530;9.200;2022-10-16T16:11:01;26.20;1.00
108;DHT22;49;48.530;9.200;2022-10-16T16:13:28;26.10;1.00
108;DHT22;49;48.530;9.200;2022-10-16T16:15:55;26.10;1.00
108;DHT22;49;48.530;9.200;2022-10-16T16:18:22;26.00;1.00
108;DHT22;49;48.530;9.200;2022-10-16T16:20:52;26.00;1.00
108;DHT22;49;48.530;9.200;2022-10-16T16:23:19;25.90;1.00
108;DHT22;49;48.530;9.200;2022-10-16T16:26:03;25.80;1.00
108;DHT22;49;48.530;9.200;2022-10-16T16:28:30;25.60;1.00
108;DHT22;49;48.530;9.200;2022-10-16T16:30:57;25.60;1.00
108;DHT22;49;48.530;9.200;2022-10-16T16:33:23;25.40;1.00
108;DHT22;49;48.530;9.200;2022-10-16T16:35:56;25.30;1.00
108;DHT22;49;48.530;9.200;2022-10-16T16:38:23;25.20;1.00
108;DHT22;49;48.530;9.200;2022-10-16T16:40:50;25.10;1.00
108;DHT22;49;48.530;9.200;2022-10-16T16:43:17;25.00;1.00
108;DHT22;49;48.530;9.200;2022-10-16T16:45:44;24.90;1.00
108;DHT22;49;48.530;9.200;2022-10-16T16:48:11;24.90;1.00
108;DHT22;49;48.530;9.200;2022-10-16T16:50:37;24.80;1.00
108;DHT22;49;48.530;9.200;2022-10-16T16:53:06;24.60;1.00
108;DHT22;49;48.530;9.200;2022-10-16T16:55:33;24.50;1.00
108;DHT22;49;48.530;9.200;2022-10-16T16:58:00;24.40;1.00
108;DHT22;49;48.530;9.200;2022-10-16T17:00:28;24.30;1.00
108;DHT22;49;48.530;9.200;2022-10-16T17:02:56;24.30;1.00
108;DHT22;49;48.530;9.200;2022-10-16T17:05:23;24.20;1.00
108;DHT22;49;48.530;9.200;2022-10-16T17:07:50;23.90;1.00
108;DHT22;49;48.530;9.200;2022-10-16T17:10:18;23.80;1.00
108;DHT22;49;48.530;9.200;2022-10-16T17:12:45;23.70;1.00
108;DHT22;49;48.530;9.200;2022-10-16T17:15:12;23.80;1.00
108;DHT22;49;48.530;9.200;2022-10-16T17:17:39;23.80;1.00
108;DHT22;49;48.530;9.200;2022-10-16T17:20:06;23.70;1.00
108;DHT22;49;48.530;9.200;2022-10-16T17:22:35;23.60;1.00
108;DHT22;49;48.530;9.200;2022-10-16T17:25:03;23.60;1.00
108;DHT22;49;48.530;9.200;2022-10-16T17:27:32;23.50;1.00
108;DHT22;49;48.530;9.200;2022-10-16T17:30:00;23.40;1.00
108;DHT22;49;48.530;9.200;2022-10-16T17:32:27;23.20;1.00
108;DHT22;49;48.530;9.200;2022-10-16T17:34:54;23.20;1.00
108;DHT22;49;48.530;9.200;2022-10-16T17:37:21;23.10;1.00